sensor_id;sensor_type;location;lat;lon;timestamp;temperature;humidity
15355;DHT22;7777;52.254;9.618;2023-12-20T00:01:35;8.30;99.90
15355;DHT22;7777;52.254;9.618;2023-12-20T00:04:03;8.30;99.90
15355;DHT22;7777;52.254;9.618;2023-12-20T00:06:29;8.30;99.90
15355;DHT22;7777;52.254;9.618;2023-12-20T00:08:56;8.30;99.90
15355;DHT22;7777;52.254;9.618;2023-12-20T00:11:23;8.30;99.90
15355;DHT22;7777;52.254;9.618;2023-12-20T00:13:49;8.30;99.90
15355;DHT22;7777;52.254;9.618;2023-12-20T00:16:15;8.30;99.90
15355;DHT22;7777;52.254;9.618;2023-12-20T00:18:41;8.20;99.90
15355;DHT22;7777;52.254;9.618;2023-12-20T00:21:07;8.20;99.90
15355;DHT22;7777;52.254;9.618;2023-12-20T00:23:33;8.20;99.90
15355;DHT22;7777;52.254;9.618;2023-12-20T00:25:58;8.20;99.90
15355;DHT22;7777;52.254;9.618;2023-12-20T00:28:24;8.20;99.90
15355;DHT22;7777;52.254;9.618;2023-12-20T00:30:49;8.20;99.90
15355;DHT22;7777;52.254;9.618;2023-12-20T00:33:15;8.20;99.90
15355;DHT22;7777;52.254;9.618;2023-12-20T00:35:41;8.20;99.90
15355;DHT22;7777;52.254;9.618;2023-12-20T00:38:07;8.10;99.90
15355;DHT22;7777;52.254;9.618;2023-12-20T00:40:34;8.10;99.90
15355;DHT22;7777;52.254;9.618;2023-12-20T00:42:59;8.10;99.90
15355;DHT22;7777;52.254;9.618;2023-12-20T00:45:25;8.10;99.90
15355;DHT22;7777;52.254;9.618;2023-12-20T00:47:52;8.00;99.90
15355;DHT22;7777;52.254;9.618;2023-12-20T00:50:18;8.00;99.90
15355;DHT22;7777;52.254;9.618;2023-12-20T00:52:45;7.90;99.90
15355;DHT22;7777;52.254;9.618;2023-12-20T00:55:11;7.90;99.90
15355;DHT22;7777;52.254;9.618;2023-12-20T00:57:37;7.90;99.90
15355;DHT22;7777;52.254;9.618;2023-12-20T01:00:03;7.80;99.90
15355;DHT22;7777;52.254;9.618;2023-12-20T01:02:31;7.80;99.90
15355;DHT22;7777;52.254;9.618;2023-12-20T01:04:57;7.80;99.90
15355;DHT22;7777;52.254;9.618;2023-12-20T01:07:23;7.70;99.90
15355;DHT22;7777;52.254;9.618;2023-12-20T01:09:48;7.70;99.90
15355;DHT22;7777;52.254;9.618;2023-12-20T01:12:15;7.60;99.90
15355;DHT22;7777;52.254;9.618;2023-12-20T01:14:40;7.60;99.90
15355;DHT22;7777;52.254;9.618;2023-12-20T01:17:06;7.60;99.90
15355;DHT22;7777;52.254;9.618;2023-12-20T01:19:32;7.60;99.90
15355;DHT22;7777;52.254;9.618;2023-12-20T01:21:58;7.50;99.90
15355;DHT22;7777;52.254;9.618;2023-12-20T01:24:24;7.50;99.90
15355;DHT22;7777;52.254;9.618;2023-12-20T01:26:49;7.50;99.90
15355;DHT22;7777;52.254;9.618;2023-12-20T01:29:15;7.50;99.90
15355;DHT22;7777;52.254;9.618;2023-12-20T01:31:41;7.50;99.90
15355;DHT22;7777;52.254;9.618;2023-12-20T01:34:07;7.50;99.90
15355;DHT22;7777;52.254;9.618;2023-12-20T01:36:32;7.40;99.90
15355;DHT22;7777;52.254;9.618;2023-12-20T01:38:58;7.40;99.90
15355;DHT22;7777;52.254;9.618;2023-12-20T01:41:24;7.40;99.90
15355;DHT22;7777;52.254;9.618;2023-12-20T01:43:50;7.40;99.90
15355;DHT22;7777;52.254;9.618;2023-12-20T01:46:16;7.40;99.90
15355;DHT22;7777;52.254;9.618;2023-12-20T01:48:42;7.40;99.90
15355;DHT22;7777;52.254;9.618;2023-12-20T01:51:08;7.40;99.90
15355;DHT22;7777;52.254;9.618;2023-12-20T01:53:35;7.40;99.90
15355;DHT22;7777;52.254;9.618;2023-12-20T01:56:01;7.40;99.90
15355;DHT22;7777;52.254;9.618;2023-12-20T01:58:28;7.30;99.90
15355;DHT22;7777;52.254;9.618;2023-12-20T02:00:54;7.30;99.90
15355;DHT22;7777;52.254;9.618;2023-12-20T02:03:21;7.30;99.90
15355;DHT22;7777;52.254;9.618;2023-12-20T02:05:48;7.30;99.90
15355;DHT22;7777;52.254;9.618;2023-12-20T02:08:14;7.30;99.90
15355;DHT22;7777;52.254;9.618;2023-12-20T02:10:40;7.30;99.90
15355;DHT22;7777;52.254;9.618;2023-12-20T02:13:07;7.30;99.90
15355;DHT22;7777;52.254;9.618;2023-12-20T02:15:33;7.30;99.90
15355;DHT22;7777;52.254;9.618;2023-12-20T02:17:59;7.30;99.90
15355;DHT22;7777;52.254;9.618;2023-12-20T02:20:24;7.20;99.90
15355;DHT22;7777;52.254;9.618;2023-12-20T02:22:50;7.20;99.90
15355;DHT22;7777;52.254;9.618;2023-12-20T02:25:16;7.20;99.90
15355;DHT22;7777;52.254;9.618;2023-12-20T02:27:42;7.20;99.90
15355;DHT22;7777;52.254;9.618;2023-12-20T02:30:08;7.20;99.90
15355;DHT22;7777;52.254;9.618;2023-12-20T02:32:35;7.10;99.90
15355;DHT22;7777;52.254;9.618;2023-12-20T02:35:02;7.10;99.90
15355;DHT22;7777;52.254;9.618;2023-12-20T02:37:29;7.10;99.90
15355;DHT22;7777;52.254;9.618;2023-12-20T02:39:56;7.10;99.90
15355;DHT22;7777;52.254;9.618;2023-12-20T02:42:21;7.10;99.90
15355;DHT22;7777;52.254;9.618;2023-12-20T02:44:47;7.10;99.90
15355;DHT22;7777;52.254;9.618;2023-12-20T02:47:13;7.00;99.90
15355;DHT22;7777;52.254;9.618;2023-12-20T02:49:39;7.00;99.90
15355;DHT22;7777;52.254;9.618;2023-12-20T02:52:05;7.00;99.90
15355;DHT22;7777;52.254;9.618;2023-12-20T02:54:30;7.00;99.90
15355;DHT22;7777;52.254;9.618;2023-12-20T02:56:56;7.00;99.90
15355;DHT22;7777;52.254;9.618;2023-12-20T02:59:22;6.90;99.90
15355;DHT22;7777;52.254;9.618;2023-12-20T03:01:48;6.90;99.90
15355;DHT22;7777;52.254;9.618;2023-12-20T03:04:14;6.90;99.90
15355;DHT22;7777;52.254;9.618;2023-12-20T03:06:39;6.90;99.90
15355;DHT22;7777;52.254;9.618;2023-12-20T03:09:05;6.90;99.90
15355;DHT22;7777;52.254;9.618;2023-12-20T03:11:31;6.90;99.90
15355;DHT22;7777;52.254;9.618;2023-12-20T03:13:58;6.90;99.90
15355;DHT22;7777;52.254;9.618;2023-12-20T03:16:24;6.90;99.90
15355;DHT22;7777;52.254;9.618;2023-12-20T03:18:50;6.90;99.90
15355;DHT22;7777;52.254;9.618;2023-12-20T03:21:15;6.80;99.90
15355;DHT22;7777;52.254;9.618;2023-12-20T03:23:41;6.80;99.90
15355;DHT22;7777;52.254;9.618;2023-12-20T03:26:07;6.80;99.90
15355;DHT22;7777;52.254;9.618;2023-12-20T03:28:33;6.80;99.90
15355;DHT22;7777;52.254;9.618;2023-12-20T03:30:59;6.80;99.90
15355;DHT22;7777;52.254;9.618;2023-12-20T03:33:25;6.80;99.90
15355;DHT22;7777;52.254;9.618;2023-12-20T03:35:50;6.80;99.90
15355;DHT22;7777;52.254;9.618;2023-12-20T03:38:17;6.80;99.90
15355;DHT22;7777;52.254;9.618;2023-12-20T03:40:42;6.70;99.90
15355;DHT22;7777;52.254;9.618;2023-12-20T03:43:08;6.70;99.90
15355;DHT22;7777;52.254;9.618;2023-12-20T03:45:34;6.70;99.90
15355;DHT22;7777;52.254;9.618;2023-12-20T03:48:00;6.70;99.90
15355;DHT22;7777;52.254;9.618;2023-12-20T03:50:26;6.70;99.90
15355;DHT22;7777;52.254;9.618;2023-12-20T03:52:52;6.70;99.90
15355;DHT22;7777;52.254;9.618;2023-12-20T03:55:18;6.70;99.90
15355;DHT22;7777;52.254;9.618;2023-12-20T03:57:44;6.70;99.90
15355;DHT22;7777;52.254;9.618;2023-12-20T04:00:11;6.70;99.90
15355;DHT22;7777;52.254;9.618;2023-12-20T04:02:38;6.70;99.90
15355;DHT22;7777;52.254;9.618;2023-12-20T04:05:04;6.70;99.90
15355;DHT22;7777;52.254;9.618;2023-12-20T04:07:31;6.70;99.90
15355;DHT22;7777;52.254;9.618;2023-12-20T04:09:56;6.70;99.90
15355;DHT22;7777;52.254;9.618;2023-12-20T04:12:22;6.70;99.90
15355;DHT22;7777;52.254;9.618;2023-12-20T04:14:48;6.70;99.90
15355;DHT22;7777;52.254;9.618;2023-12-20T04:17:15;6.70;99.90
15355;DHT22;7777;52.254;9.618;2023-12-20T04:19:41;6.70;99.90
15355;DHT22;7777;52.254;9.618;2023-12-20T04:22:07;6.70;99.90
15355;DHT22;7777;52.254;9.618;2023-12-20T04:24:33;6.70;99.90
15355;DHT22;7777;52.254;9.618;2023-12-20T04:26:59;6.70;99.90
15355;DHT22;7777;52.254;9.618;2023-12-20T04:29:25;6.70;99.90
15355;DHT22;7777;52.254;9.618;2023-12-20T04:31:51;6.70;99.90
15355;DHT22;7777;52.254;9.618;2023-12-20T04:34:17;6.70;99.90
15355;DHT22;7777;52.254;9.618;2023-12-20T04:36:43;6.80;99.90
15355;DHT22;7777;52.254;9.618;2023-12-20T04:39:11;6.80;99.90
15355;DHT22;7777;52.254;9.618;2023-12-20T04:41:38;6.80;99.90
15355;DHT22;7777;52.254;9.618;2023-12-20T04:44:04;6.80;99.90
15355;DHT22;7777;52.254;9.618;2023-12-20T04:46:29;6.80;99.90
15355;DHT22;7777;52.254;9.618;2023-12-20T04:48:55;6.80;99.90
15355;DHT22;7777;52.254;9.618;2023-12-20T04:51:21;6.80;99.90
15355;DHT22;7777;52.254;9.618;2023-12-20T04:53:47;6.80;99.90
15355;DHT22;7777;52.254;9.618;2023-12-20T04:56:12;6.80;99.90
15355;DHT22;7777;52.254;9.618;2023-12-20T04:58:38;6.80;99.90
15355;DHT22;7777;52.254;9.618;2023-12-20T05:01:06;6.80;99.90
15355;DHT22;7777;52.254;9.618;2023-12-20T05:03:32;6.80;99.90
15355;DHT22;7777;52.254;9.618;2023-12-20T05:05:58;6.80;99.90
15355;DHT22;7777;52.254;9.618;2023-12-20T05:08:24;6.80;99.90
15355;DHT22;7777;52.254;9.618;2023-12-20T05:10:50;6.80;99.90
15355;DHT22;7777;52.254;9.618;2023-12-20T05:13:18;6.80;99.90
15355;DHT22;7777;52.254;9.618;2023-12-20T05:15:44;6.80;99.90
15355;DHT22;7777;52.254;9.618;2023-12-20T05:18:10;6.80;99.90
15355;DHT22;7777;52.254;9.618;2023-12-20T05:20:35;6.80;99.90
15355;DHT22;7777;52.254;9.618;2023-12-20T05:23:01;6.80;99.90
15355;DHT22;7777;52.254;9.618;2023-12-20T05:25:27;6.90;99.90
15355;DHT22;7777;52.254;9.618;2023-12-20T05:27:53;6.90;99.90
15355;DHT22;7777;52.254;9.618;2023-12-20T05:30:18;6.90;99.90
15355;DHT22;7777;52.254;9.618;2023-12-20T05:32:44;6.90;99.90
15355;DHT22;7777;52.254;9.618;2023-12-20T05:35:09;6.90;99.90
15355;DHT22;7777;52.254;9.618;2023-12-20T05:37:35;6.90;99.90
15355;DHT22;7777;52.254;9.618;2023-12-20T05:40:01;6.90;99.90
15355;DHT22;7777;52.254;9.618;2023-12-20T05:42:27;6.90;99.90
15355;DHT22;7777;52.254;9.618;2023-12-20T05:44:52;6.90;99.90
15355;DHT22;7777;52.254;9.618;2023-12-20T05:47:19;6.90;99.90
15355;DHT22;7777;52.254;9.618;2023-12-20T05:49:45;6.90;99.90
15355;DHT22;7777;52.254;9.618;2023-12-20T05:52:10;6.90;99.90
15355;DHT22;7777;52.254;9.618;2023-12-20T05:54:36;6.90;99.90
15355;DHT22;7777;52.254;9.618;2023-12-20T05:57:02;7.00;99.90
15355;DHT22;7777;52.254;9.618;2023-12-20T05:59:28;6.90;99.90
15355;DHT22;7777;52.254;9.618;2023-12-20T06:01:53;6.90;99.90
15355;DHT22;7777;52.254;9.618;2023-12-20T06:04:19;6.90;99.90
15355;DHT22;7777;52.254;9.618;2023-12-20T06:06:45;6.90;99.90
15355;DHT22;7777;52.254;9.618;2023-12-20T06:09:10;6.90;99.90
15355;DHT22;7777;52.254;9.618;2023-12-20T06:11:37;6.90;99.90
15355;DHT22;7777;52.254;9.618;2023-12-20T06:14:03;6.90;99.90
15355;DHT22;7777;52.254;9.618;2023-12-20T06:16:29;6.90;99.90
15355;DHT22;7777;52.254;9.618;2023-12-20T06:18:55;6.90;99.90
15355;DHT22;7777;52.254;9.618;2023-12-20T06:21:20;6.80;99.90
15355;DHT22;7777;52.254;9.618;2023-12-20T06:23:46;6.80;99.90
15355;DHT22;7777;52.254;9.618;2023-12-20T06:26:12;6.80;99.90
15355;DHT22;7777;52.254;9.618;2023-12-20T06:28:37;6.80;99.90
15355;DHT22;7777;52.254;9.618;2023-12-20T06:31:03;6.80;99.90
15355;DHT22;7777;52.254;9.618;2023-12-20T06:33:30;6.80;99.90
15355;DHT22;7777;52.254;9.618;2023-12-20T06:35:57;6.80;99.90
15355;DHT22;7777;52.254;9.618;2023-12-20T06:38:23;6.80;99.90
15355;DHT22;7777;52.254;9.618;2023-12-20T06:40:48;6.80;99.90
15355;DHT22;7777;52.254;9.618;2023-12-20T06:43:14;6.70;99.90
15355;DHT22;7777;52.254;9.618;2023-12-20T06:45:40;6.70;99.90
15355;DHT22;7777;52.254;9.618;2023-12-20T06:48:06;6.70;99.90
15355;DHT22;7777;52.254;9.618;2023-12-20T06:50:32;6.70;99.90
15355;DHT22;7777;52.254;9.618;2023-12-20T06:52:59;6.70;99.90
15355;DHT22;7777;52.254;9.618;2023-12-20T06:55:33;6.70;99.90
15355;DHT22;7777;52.254;9.618;2023-12-20T06:58:01;6.70;99.90
15355;DHT22;7777;52.254;9.618;2023-12-20T07:00:27;6.70;99.90
15355;DHT22;7777;52.254;9.618;2023-12-20T07:02:53;6.70;99.90
15355;DHT22;7777;52.254;9.618;2023-12-20T07:05:19;6.60;99.90
15355;DHT22;7777;52.254;9.618;2023-12-20T07:07:46;6.70;99.90
15355;DHT22;7777;52.254;9.618;2023-12-20T07:10:13;6.60;99.90
15355;DHT22;7777;52.254;9.618;2023-12-20T07:12:40;6.60;99.90
15355;DHT22;7777;52.254;9.618;2023-12-20T07:15:06;6.60;99.90
15355;DHT22;7777;52.254;9.618;2023-12-20T07:17:33;6.60;99.90
15355;DHT22;7777;52.254;9.618;2023-12-20T07:19:59;6.60;99.90
15355;DHT22;7777;52.254;9.618;2023-12-20T07:22:33;6.60;99.90
15355;DHT22;7777;52.254;9.618;2023-12-20T07:24:59;6.60;99.90
15355;DHT22;7777;52.254;9.618;2023-12-20T07:27:26;6.60;99.90
15355;DHT22;7777;52.254;9.618;2023-12-20T07:29:52;6.60;99.90
15355;DHT22;7777;52.254;9.618;2023-12-20T07:32:18;6.60;99.90
15355;DHT22;7777;52.254;9.618;2023-12-20T07:34:44;6.60;99.90
15355;DHT22;7777;52.254;9.618;2023-12-20T07:37:10;6.60;99.90
15355;DHT22;7777;52.254;9.618;2023-12-20T07:39:38;6.60;99.90
15355;DHT22;7777;52.254;9.618;2023-12-20T07:42:05;6.60;99.90
15355;DHT22;7777;52.254;9.618;2023-12-20T07:44:32;6.60;99.90
15355;DHT22;7777;52.254;9.618;2023-12-20T07:47:01;6.60;99.90
15355;DHT22;7777;52.254;9.618;2023-12-20T07:49:27;6.60;99.90
15355;DHT22;7777;52.254;9.618;2023-12-20T07:51:53;6.60;99.90
15355;DHT22;7777;52.254;9.618;2023-12-20T07:54:19;6.60;99.90
15355;DHT22;7777;52.254;9.618;2023-12-20T07:56:46;6.60;99.90
15355;DHT22;7777;52.254;9.618;2023-12-20T07:59:13;6.70;99.90
15355;DHT22;7777;52.254;9.618;2023-12-20T08:01:39;6.70;99.90
15355;DHT22;7777;52.254;9.618;2023-12-20T08:04:05;6.70;99.90
15355;DHT22;7777;52.254;9.618;2023-12-20T08:06:33;6.70;99.90
15355;DHT22;7777;52.254;9.618;2023-12-20T08:08:59;6.70;99.90
15355;DHT22;7777;52.254;9.618;2023-12-20T08:11:25;6.70;99.90
15355;DHT22;7777;52.254;9.618;2023-12-20T08:13:50;6.70;99.90
15355;DHT22;7777;52.254;9.618;2023-12-20T08:16:16;6.70;99.90
15355;DHT22;7777;52.254;9.618;2023-12-20T08:18:43;6.70;99.90
15355;DHT22;7777;52.254;9.618;2023-12-20T08:21:09;6.70;99.90
15355;DHT22;7777;52.254;9.618;2023-12-20T08:23:35;6.70;99.90
15355;DHT22;7777;52.254;9.618;2023-12-20T08:26:05;6.70;99.90
15355;DHT22;7777;52.254;9.618;2023-12-20T08:28:32;6.80;99.90
15355;DHT22;7777;52.254;9.618;2023-12-20T08:30:59;6.80;99.90
15355;DHT22;7777;52.254;9.618;2023-12-20T08:33:25;6.80;99.90
15355;DHT22;7777;52.254;9.618;2023-12-20T08:35:52;6.80;99.90
15355;DHT22;7777;52.254;9.618;2023-12-20T08:38:18;6.80;99.90
15355;DHT22;7777;52.254;9.618;2023-12-20T08:40:44;6.80;99.90
15355;DHT22;7777;52.254;9.618;2023-12-20T08:43:10;6.80;99.90
15355;DHT22;7777;52.254;9.618;2023-12-20T08:45:35;6.80;99.90
15355;DHT22;7777;52.254;9.618;2023-12-20T08:48:01;6.80;99.90
15355;DHT22;7777;52.254;9.618;2023-12-20T08:50:28;6.80;99.90
15355;DHT22;7777;52.254;9.618;2023-12-20T08:52:54;6.80;99.90
15355;DHT22;7777;52.254;9.618;2023-12-20T08:55:20;6.80;99.90
15355;DHT22;7777;52.254;9.618;2023-12-20T08:57:46;6.90;99.90
15355;DHT22;7777;52.254;9.618;2023-12-20T09:00:12;6.90;99.90
15355;DHT22;7777;52.254;9.618;2023-12-20T09:02:38;6.90;99.90
15355;DHT22;7777;52.254;9.618;2023-12-20T09:05:04;6.90;99.90
15355;DHT22;7777;52.254;9.618;2023-12-20T09:07:30;6.90;99.90
15355;DHT22;7777;52.254;9.618;2023-12-20T09:09:57;6.90;99.90
15355;DHT22;7777;52.254;9.618;2023-12-20T09:12:23;6.90;99.90
15355;DHT22;7777;52.254;9.618;2023-12-20T09:14:50;6.90;99.90
15355;DHT22;7777;52.254;9.618;2023-12-20T09:17:17;6.90;99.90
15355;DHT22;7777;52.254;9.618;2023-12-20T09:19:44;7.00;99.90
15355;DHT22;7777;52.254;9.618;2023-12-20T09:22:10;7.00;99.90
15355;DHT22;7777;52.254;9.618;2023-12-20T09:24:36;7.00;99.90
15355;DHT22;7777;52.254;9.618;2023-12-20T09:27:04;7.00;99.90
15355;DHT22;7777;52.254;9.618;2023-12-20T09:29:30;7.00;99.90
15355;DHT22;7777;52.254;9.618;2023-12-20T09:31:56;7.00;99.90
15355;DHT22;7777;52.254;9.618;2023-12-20T09:34:24;7.00;99.90
15355;DHT22;7777;52.254;9.618;2023-12-20T09:36:51;7.00;99.90
15355;DHT22;7777;52.254;9.618;2023-12-20T09:39:18;7.00;99.90
15355;DHT22;7777;52.254;9.618;2023-12-20T09:42:11;7.00;99.90
15355;DHT22;7777;52.254;9.618;2023-12-20T09:44:36;7.00;99.90
15355;DHT22;7777;52.254;9.618;2023-12-20T09:47:03;7.00;99.90
15355;DHT22;7777;52.254;9.618;2023-12-20T09:49:31;7.00;99.90
15355;DHT22;7777;52.254;9.618;2023-12-20T09:52:00;7.00;99.90
15355;DHT22;7777;52.254;9.618;2023-12-20T09:54:27;7.10;99.90
15355;DHT22;7777;52.254;9.618;2023-12-20T09:56:54;7.10;99.90
15355;DHT22;7777;52.254;9.618;2023-12-20T09:59:20;7.10;99.90
15355;DHT22;7777;52.254;9.618;2023-12-20T10:01:46;7.10;99.90
15355;DHT22;7777;52.254;9.618;2023-12-20T10:04:12;7.10;99.90
15355;DHT22;7777;52.254;9.618;2023-12-20T10:06:42;7.10;99.90
15355;DHT22;7777;52.254;9.618;2023-12-20T10:09:10;7.10;99.90
15355;DHT22;7777;52.254;9.618;2023-12-20T10:11:36;7.10;99.90
15355;DHT22;7777;52.254;9.618;2023-12-20T10:14:04;7.20;99.90
15355;DHT22;7777;52.254;9.618;2023-12-20T10:16:31;7.20;99.90
15355;DHT22;7777;52.254;9.618;2023-12-20T10:18:58;7.20;99.90
15355;DHT22;7777;52.254;9.618;2023-12-20T10:21:24;7.20;99.90
15355;DHT22;7777;52.254;9.618;2023-12-20T10:23:54;7.20;99.90
15355;DHT22;7777;52.254;9.618;2023-12-20T10:26:22;7.30;99.90
15355;DHT22;7777;52.254;9.618;2023-12-20T10:29:00;7.30;99.90
15355;DHT22;7777;52.254;9.618;2023-12-20T10:31:30;7.30;99.90
15355;DHT22;7777;52.254;9.618;2023-12-20T10:33:58;7.30;99.90
15355;DHT22;7777;52.254;9.618;2023-12-20T10:36:29;7.30;99.90
15355;DHT22;7777;52.254;9.618;2023-12-20T10:38:56;7.30;99.90
15355;DHT22;7777;52.254;9.618;2023-12-20T10:41:32;7.30;99.90
15355;DHT22;7777;52.254;9.618;2023-12-20T10:44:01;7.30;99.90
15355;DHT22;7777;52.254;9.618;2023-12-20T10:46:29;7.40;99.90
15355;DHT22;7777;52.254;9.618;2023-12-20T10:48:58;7.40;99.90
15355;DHT22;7777;52.254;9.618;2023-12-20T10:51:25;7.40;99.90
15355;DHT22;7777;52.254;9.618;2023-12-20T10:53:55;7.40;99.90
15355;DHT22;7777;52.254;9.618;2023-12-20T10:56:21;7.40;99.90
15355;DHT22;7777;52.254;9.618;2023-12-20T10:58:51;7.40;99.90
15355;DHT22;7777;52.254;9.618;2023-12-20T11:01:19;7.40;99.90
15355;DHT22;7777;52.254;9.618;2023-12-20T11:03:55;7.50;99.90
15355;DHT22;7777;52.254;9.618;2023-12-20T11:09:24;7.50;99.90
15355;DHT22;7777;52.254;9.618;2023-12-20T11:14:48;7.50;99.90
15355;DHT22;7777;52.254;9.618;2023-12-20T11:17:15;7.50;99.90
15355;DHT22;7777;52.254;9.618;2023-12-20T11:22:29;7.50;99.90
15355;DHT22;7777;52.254;9.618;2023-12-20T11:25:09;7.50;99.90
15355;DHT22;7777;52.254;9.618;2023-12-20T11:27:41;7.50;99.90
15355;DHT22;7777;52.254;9.618;2023-12-20T11:30:09;7.50;99.90
15355;DHT22;7777;52.254;9.618;2023-12-20T11:32:36;7.50;99.90
15355;DHT22;7777;52.254;9.618;2023-12-20T11:37:38;7.50;99.90
15355;DHT22;7777;52.254;9.618;2023-12-20T11:40:15;7.50;99.90
15355;DHT22;7777;52.254;9.618;2023-12-20T11:42:45;7.50;99.90
15355;DHT22;7777;52.254;9.618;2023-12-20T11:45:16;7.60;99.90
15355;DHT22;7777;52.254;9.618;2023-12-20T11:47:47;7.50;99.90
15355;DHT22;7777;52.254;9.618;2023-12-20T11:50:17;7.60;99.90
15355;DHT22;7777;52.254;9.618;2023-12-20T11:52:43;7.60;99.90
15355;DHT22;7777;52.254;9.618;2023-12-20T11:55:09;7.60;99.90
15355;DHT22;7777;52.254;9.618;2023-12-20T11:57:36;7.60;99.90
15355;DHT22;7777;52.254;9.618;2023-12-20T12:00:03;7.60;99.90
15355;DHT22;7777;52.254;9.618;2023-12-20T12:02:30;7.50;99.90
15355;DHT22;7777;52.254;9.618;2023-12-20T12:04:56;7.50;99.90
15355;DHT22;7777;52.254;9.618;2023-12-20T12:07:24;7.40;99.90
15355;DHT22;7777;52.254;9.618;2023-12-20T12:09:49;7.30;99.90
15355;DHT22;7777;52.254;9.618;2023-12-20T12:12:16;7.10;99.90
15355;DHT22;7777;52.254;9.618;2023-12-20T12:14:42;7.00;99.90
15355;DHT22;7777;52.254;9.618;2023-12-20T12:17:15;6.90;99.90
15355;DHT22;7777;52.254;9.618;2023-12-20T12:19:42;6.70;99.90
15355;DHT22;7777;52.254;9.618;2023-12-20T12:22:11;6.70;99.90
15355;DHT22;7777;52.254;9.618;2023-12-20T12:24:41;6.60;99.90
15355;DHT22;7777;52.254;9.618;2023-12-20T12:27:08;6.50;99.90
15355;DHT22;7777;52.254;9.618;2023-12-20T12:29:35;6.40;99.90
15355;DHT22;7777;52.254;9.618;2023-12-20T12:32:04;6.30;99.90
15355;DHT22;7777;52.254;9.618;2023-12-20T12:34:34;6.30;99.90
15355;DHT22;7777;52.254;9.618;2023-12-20T12:37:03;6.20;99.90
15355;DHT22;7777;52.254;9.618;2023-12-20T12:39:29;6.20;99.90
15355;DHT22;7777;52.254;9.618;2023-12-20T12:41:55;6.10;99.90
15355;DHT22;7777;52.254;9.618;2023-12-20T12:44:22;6.10;99.90
15355;DHT22;7777;52.254;9.618;2023-12-20T12:46:50;6.00;99.90
15355;DHT22;7777;52.254;9.618;2023-12-20T12:49:19;6.00;99.90
15355;DHT22;7777;52.254;9.618;2023-12-20T12:51:45;6.00;99.90
15355;DHT22;7777;52.254;9.618;2023-12-20T12:54:12;5.90;99.90
15355;DHT22;7777;52.254;9.618;2023-12-20T12:56:39;5.90;99.90
15355;DHT22;7777;52.254;9.618;2023-12-20T12:59:05;5.90;99.90
15355;DHT22;7777;52.254;9.618;2023-12-20T13:01:31;5.90;99.90
15355;DHT22;7777;52.254;9.618;2023-12-20T13:03:57;5.90;99.90
15355;DHT22;7777;52.254;9.618;2023-12-20T13:06:23;5.90;99.90
15355;DHT22;7777;52.254;9.618;2023-12-20T13:08:49;6.00;99.90
15355;DHT22;7777;52.254;9.618;2023-12-20T13:11:15;6.00;99.90
15355;DHT22;7777;52.254;9.618;2023-12-20T13:13:41;6.00;99.90
15355;DHT22;7777;52.254;9.618;2023-12-20T13:16:08;6.00;99.90
15355;DHT22;7777;52.254;9.618;2023-12-20T13:18:35;6.00;99.90
15355;DHT22;7777;52.254;9.618;2023-12-20T13:21:01;6.10;99.90
15355;DHT22;7777;52.254;9.618;2023-12-20T13:23:27;6.10;99.90
15355;DHT22;7777;52.254;9.618;2023-12-20T13:25:53;6.10;99.90
15355;DHT22;7777;52.254;9.618;2023-12-20T13:28:19;6.10;99.90
15355;DHT22;7777;52.254;9.618;2023-12-20T13:30:45;6.20;99.90
15355;DHT22;7777;52.254;9.618;2023-12-20T13:33:11;6.20;99.90
15355;DHT22;7777;52.254;9.618;2023-12-20T13:35:37;6.20;99.90
15355;DHT22;7777;52.254;9.618;2023-12-20T13:38:03;6.30;99.90
15355;DHT22;7777;52.254;9.618;2023-12-20T13:40:30;6.30;99.90
15355;DHT22;7777;52.254;9.618;2023-12-20T13:42:56;6.30;99.90
15355;DHT22;7777;52.254;9.618;2023-12-20T13:45:21;6.40;99.90
15355;DHT22;7777;52.254;9.618;2023-12-20T13:47:47;6.40;99.90
15355;DHT22;7777;52.254;9.618;2023-12-20T13:50:13;6.40;99.90
15355;DHT22;7777;52.254;9.618;2023-12-20T13:52:39;6.40;99.90
15355;DHT22;7777;52.254;9.618;2023-12-20T13:55:04;6.50;99.90
15355;DHT22;7777;52.254;9.618;2023-12-20T13:57:33;6.50;99.90
15355;DHT22;7777;52.254;9.618;2023-12-20T13:59:59;6.50;99.90
15355;DHT22;7777;52.254;9.618;2023-12-20T14:02:25;6.50;99.90
15355;DHT22;7777;52.254;9.618;2023-12-20T14:04:52;6.50;99.90
15355;DHT22;7777;52.254;9.618;2023-12-20T14:07:18;6.60;99.90
15355;DHT22;7777;52.254;9.618;2023-12-20T14:09:43;6.60;99.90
15355;DHT22;7777;52.254;9.618;2023-12-20T14:12:11;6.60;99.90
15355;DHT22;7777;52.254;9.618;2023-12-20T14:14:37;6.60;99.90
15355;DHT22;7777;52.254;9.618;2023-12-20T14:17:03;6.60;99.90
15355;DHT22;7777;52.254;9.618;2023-12-20T14:19:32;6.60;99.90
15355;DHT22;7777;52.254;9.618;2023-12-20T14:21:57;6.60;99.90
15355;DHT22;7777;52.254;9.618;2023-12-20T14:24:27;6.60;99.90
15355;DHT22;7777;52.254;9.618;2023-12-20T14:26:53;6.60;99.90
15355;DHT22;7777;52.254;9.618;2023-12-20T14:29:19;6.60;99.90
15355;DHT22;7777;52.254;9.618;2023-12-20T14:31:45;6.70;99.90
15355;DHT22;7777;52.254;9.618;2023-12-20T14:34:11;6.70;99.90
15355;DHT22;7777;52.254;9.618;2023-12-20T14:36:37;6.70;99.90
15355;DHT22;7777;52.254;9.618;2023-12-20T14:39:03;6.70;99.90
15355;DHT22;7777;52.254;9.618;2023-12-20T14:41:30;6.70;99.90
15355;DHT22;7777;52.254;9.618;2023-12-20T14:43:56;6.70;99.90
15355;DHT22;7777;52.254;9.618;2023-12-20T14:46:22;6.70;99.90
15355;DHT22;7777;52.254;9.618;2023-12-20T14:48:49;6.70;99.90
15355;DHT22;7777;52.254;9.618;2023-12-20T14:51:15;6.70;99.90
15355;DHT22;7777;52.254;9.618;2023-12-20T14:53:41;6.70;99.90
15355;DHT22;7777;52.254;9.618;2023-12-20T14:56:08;6.70;99.90
15355;DHT22;7777;52.254;9.618;2023-12-20T14:58:34;6.70;99.90
15355;DHT22;7777;52.254;9.618;2023-12-20T15:01:01;6.70;99.90
15355;DHT22;7777;52.254;9.618;2023-12-20T15:03:27;6.70;99.90
15355;DHT22;7777;52.254;9.618;2023-12-20T15:05:54;6.70;99.90
15355;DHT22;7777;52.254;9.618;2023-12-20T15:08:20;6.70;99.90
15355;DHT22;7777;52.254;9.618;2023-12-20T15:10:47;6.70;99.90
15355;DHT22;7777;52.254;9.618;2023-12-20T15:13:12;6.70;99.90
15355;DHT22;7777;52.254;9.618;2023-12-20T15:15:38;6.70;99.90
15355;DHT22;7777;52.254;9.618;2023-12-20T15:18:04;6.70;99.90
15355;DHT22;7777;52.254;9.618;2023-12-20T15:20:30;6.70;99.90
15355;DHT22;7777;52.254;9.618;2023-12-20T15:22:58;6.70;99.90
15355;DHT22;7777;52.254;9.618;2023-12-20T15:25:30;6.70;99.90
15355;DHT22;7777;52.254;9.618;2023-12-20T15:27:56;6.70;99.90
15355;DHT22;7777;52.254;9.618;2023-12-20T15:30:22;6.70;99.90
15355;DHT22;7777;52.254;9.618;2023-12-20T15:32:51;6.70;99.90
15355;DHT22;7777;52.254;9.618;2023-12-20T15:35:17;6.70;99.90
15355;DHT22;7777;52.254;9.618;2023-12-20T15:37:43;6.70;99.90
15355;DHT22;7777;52.254;9.618;2023-12-20T15:40:09;6.70;99.90
15355;DHT22;7777;52.254;9.618;2023-12-20T15:42:36;6.70;99.90
15355;DHT22;7777;52.254;9.618;2023-12-20T15:45:03;6.60;99.90
15355;DHT22;7777;52.254;9.618;2023-12-20T15:47:31;6.70;99.90
15355;DHT22;7777;52.254;9.618;2023-12-20T15:49:57;6.60;99.90
15355;DHT22;7777;52.254;9.618;2023-12-20T15:52:23;6.60;99.90
15355;DHT22;7777;52.254;9.618;2023-12-20T15:54:49;6.60;99.90
15355;DHT22;7777;52.254;9.618;2023-12-20T15:57:15;6.60;99.90
15355;DHT22;7777;52.254;9.618;2023-12-20T15:59:42;6.60;99.90
15355;DHT22;7777;52.254;9.618;2023-12-20T16:02:07;6.60;99.90
15355;DHT22;7777;52.254;9.618;2023-12-20T16:04:33;6.60;99.90
15355;DHT22;7777;52.254;9.618;2023-12-20T16:07:00;6.60;99.90
15355;DHT22;7777;52.254;9.618;2023-12-20T16:09:27;6.60;99.90